sensor_id;sensor_type;location;lat;lon;timestamp;P1;P2;P0
23240;PMS7003;11789;53.482;9.862;2023-05-31T00:01:44;7.50;7.00;5.00
23240;PMS7003;11789;53.482;9.862;2023-05-31T00:04:09;8.25;7.25;4.75
23240;PMS7003;11789;53.482;9.862;2023-05-31T00:06:35;8.50;7.00;5.25
23240;PMS7003;11789;53.482;9.862;2023-05-31T00:09:00;10.00;8.50;7.00
23240;PMS7003;11789;53.482;9.862;2023-05-31T00:11:26;11.00;8.00;7.00
23240;PMS7003;11789;53.482;9.862;2023-05-31T00:13:52;12.00;11.25;7.50
23240;PMS7003;11789;53.482;9.862;2023-05-31T00:16:18;10.75;8.75;6.75
23240;PMS7003;11789;53.482;9.862;2023-05-31T00:18:43;9.50;9.50;6.75
23240;PMS7003;11789;53.482;9.862;2023-05-31T00:21:09;13.00;9.75;6.00
23240;PMS7003;11789;53.482;9.862;2023-05-31T00:23:35;10.75;8.00;6.00
23240;PMS7003;11789;53.482;9.862;2023-05-31T00:26:00;9.25;8.00;6.00
23240;PMS7003;11789;53.482;9.862;2023-05-31T00:28:26;10.00;8.00;6.00
23240;PMS7003;11789;53.482;9.862;2023-05-31T00:30:51;12.50;11.00;6.75
23240;PMS7003;11789;53.482;9.862;2023-05-31T00:33:17;10.75;9.50;6.00
23240;PMS7003;11789;53.482;9.862;2023-05-31T00:35:42;9.50;8.25;5.00
23240;PMS7003;11789;53.482;9.862;2023-05-31T00:38:07;10.25;10.25;7.75
23240;PMS7003;11789;53.482;9.862;2023-05-31T00:40:33;8.50;8.50;6.25
23240;PMS7003;11789;53.482;9.862;2023-05-31T00:42:59;9.75;8.25;6.50
23240;PMS7003;11789;53.482;9.862;2023-05-31T00:45:25;8.75;8.75;7.00
23240;PMS7003;11789;53.482;9.862;2023-05-31T00:47:50;8.25;8.25;6.00
23240;PMS7003;11789;53.482;9.862;2023-05-31T00:50:16;8.00;7.00;4.25
23240;PMS7003;11789;53.482;9.862;2023-05-31T00:52:43;8.50;8.50;6.00
23240;PMS7003;11789;53.482;9.862;2023-05-31T00:55:11;11.50;9.75;6.50
23240;PMS7003;11789;53.482;9.862;2023-05-31T00:57:37;10.75;8.25;6.75
23240;PMS7003;11789;53.482;9.862;2023-05-31T01:00:03;10.00;8.00;6.00
23240;PMS7003;11789;53.482;9.862;2023-05-31T01:02:30;8.00;8.00;5.75
23240;PMS7003;11789;53.482;9.862;2023-05-31T01:04:57;7.75;7.75;5.75
23240;PMS7003;11789;53.482;9.862;2023-05-31T01:07:23;7.75;6.75;5.50
23240;PMS7003;11789;53.482;9.862;2023-05-31T01:09:49;11.50;9.25;6.75
23240;PMS7003;11789;53.482;9.862;2023-05-31T01:12:20;9.00;9.00;6.00
23240;PMS7003;11789;53.482;9.862;2023-05-31T01:14:59;8.50;8.00;6.75
23240;PMS7003;11789;53.482;9.862;2023-05-31T01:20:45;10.75;8.00;6.75
23240;PMS7003;11789;53.482;9.862;2023-05-31T01:29:07;8.00;8.00;6.00
23240;PMS7003;11789;53.482;9.862;2023-05-31T01:31:37;8.00;8.00;6.50
23240;PMS7003;11789;53.482;9.862;2023-05-31T01:34:04;10.00;10.00;6.00
23240;PMS7003;11789;53.482;9.862;2023-05-31T01:36:30;9.00;9.00;7.00
23240;PMS7003;11789;53.482;9.862;2023-05-31T01:38:56;11.00;9.50;6.00
23240;PMS7003;11789;53.482;9.862;2023-05-31T01:41:23;9.25;8.75;6.25
23240;PMS7003;11789;53.482;9.862;2023-05-31T01:43:51;10.25;9.00;6.00
23240;PMS7003;11789;53.482;9.862;2023-05-31T01:46:18;10.00;8.75;5.75
23240;PMS7003;11789;53.482;9.862;2023-05-31T01:48:44;10.75;8.75;6.00
23240;PMS7003;11789;53.482;9.862;2023-05-31T01:51:11;9.75;7.75;5.00
23240;PMS7003;11789;53.482;9.862;2023-05-31T01:53:39;7.00;7.00;6.00
23240;PMS7003;11789;53.482;9.862;2023-05-31T01:56:08;9.00;9.00;6.00
23240;PMS7003;11789;53.482;9.862;2023-05-31T01:58:38;10.75;7.75;4.00
23240;PMS7003;11789;53.482;9.862;2023-05-31T02:01:08;11.00;8.25;6.00
23240;PMS7003;11789;53.482;9.862;2023-05-31T02:03:36;11.50;9.50;6.00
23240;PMS7003;11789;53.482;9.862;2023-05-31T02:06:03;11.00;9.25;7.00
23240;PMS7003;11789;53.482;9.862;2023-05-31T02:08:28;11.75;10.50;7.00
23240;PMS7003;11789;53.482;9.862;2023-05-31T02:10:54;11.00;9.25;6.50
23240;PMS7003;11789;53.482;9.862;2023-05-31T02:13:22;6.00;6.00;5.00
23240;PMS7003;11789;53.482;9.862;2023-05-31T02:15:51;7.50;7.50;5.50
23240;PMS7003;11789;53.482;9.862;2023-05-31T02:18:16;8.50;8.50;6.00
23240;PMS7003;11789;53.482;9.862;2023-05-31T02:20:42;8.25;8.00;6.00
23240;PMS7003;11789;53.482;9.862;2023-05-31T02:23:09;8.00;8.00;5.25
23240;PMS7003;11789;53.482;9.862;2023-05-31T02:25:34;8.00;7.00;5.75
23240;PMS7003;11789;53.482;9.862;2023-05-31T02:28:00;11.50;8.00;6.00
23240;PMS7003;11789;53.482;9.862;2023-05-31T02:30:26;10.00;8.25;6.00
23240;PMS7003;11789;53.482;9.862;2023-05-31T02:32:52;10.50;10.50;7.25
23240;PMS7003;11789;53.482;9.862;2023-05-31T02:35:18;7.75;7.75;4.75
23240;PMS7003;11789;53.482;9.862;2023-05-31T02:37:44;7.25;7.25;5.25
23240;PMS7003;11789;53.482;9.862;2023-05-31T02:40:10;11.75;8.00;6.00
23240;PMS7003;11789;53.482;9.862;2023-05-31T02:42:37;8.00;8.00;5.75
23240;PMS7003;11789;53.482;9.862;2023-05-31T02:45:04;10.25;8.25;5.00
23240;PMS7003;11789;53.482;9.862;2023-05-31T02:47:31;7.00;6.25;6.00
23240;PMS7003;11789;53.482;9.862;2023-05-31T02:49:56;10.25;8.75;5.75
23240;PMS7003;11789;53.482;9.862;2023-05-31T02:52:22;10.00;8.50;6.25
23240;PMS7003;11789;53.482;9.862;2023-05-31T02:54:49;6.00;6.00;5.00
23240;PMS7003;11789;53.482;9.862;2023-05-31T02:57:14;6.25;6.25;4.00
23240;PMS7003;11789;53.482;9.862;2023-05-31T02:59:40;9.00;7.75;5.75
23240;PMS7003;11789;53.482;9.862;2023-05-31T03:02:05;8.00;8.00;6.00
23240;PMS7003;11789;53.482;9.862;2023-05-31T03:04:31;11.75;8.25;6.00
23240;PMS7003;11789;53.482;9.862;2023-05-31T03:06:56;11.00;9.00;6.50
23240;PMS7003;11789;53.482;9.862;2023-05-31T03:09:22;8.25;7.75;5.00
23240;PMS7003;11789;53.482;9.862;2023-05-31T03:11:48;7.75;7.00;6.00
23240;PMS7003;11789;53.482;9.862;2023-05-31T03:14:13;9.00;9.00;6.00
23240;PMS7003;11789;53.482;9.862;2023-05-31T03:16:39;9.00;7.00;6.00
23240;PMS7003;11789;53.482;9.862;2023-05-31T03:19:04;10.50;8.75;7.25
23240;PMS7003;11789;53.482;9.862;2023-05-31T03:21:30;8.25;8.25;6.75
23240;PMS7003;11789;53.482;9.862;2023-05-31T03:23:55;7.50;7.50;6.50
23240;PMS7003;11789;53.482;9.862;2023-05-31T03:26:20;7.50;7.50;6.00
23240;PMS7003;11789;53.482;9.862;2023-05-31T03:28:46;6.50;6.50;5.00
23240;PMS7003;11789;53.482;9.862;2023-05-31T03:31:11;10.75;7.75;6.00
23240;PMS7003;11789;53.482;9.862;2023-05-31T03:33:37;5.25;5.25;4.00
23240;PMS7003;11789;53.482;9.862;2023-05-31T03:36:02;7.00;7.00;5.00
23240;PMS7003;11789;53.482;9.862;2023-05-31T03:38:28;10.50;9.00;6.00
23240;PMS7003;11789;53.482;9.862;2023-05-31T03:40:54;7.50;7.50;6.00
23240;PMS7003;11789;53.482;9.862;2023-05-31T03:43:20;4.50;4.50;3.00
23240;PMS7003;11789;53.482;9.862;2023-05-31T03:45:45;5.75;5.75;4.00
23240;PMS7003;11789;53.482;9.862;2023-05-31T03:48:11;5.75;5.50;4.25
23240;PMS7003;11789;53.482;9.862;2023-05-31T03:50:38;6.00;5.75;4.00
23240;PMS7003;11789;53.482;9.862;2023-05-31T03:53:05;6.00;6.00;4.75
23240;PMS7003;11789;53.482;9.862;2023-05-31T03:55:31;8.25;4.75;3.75
23240;PMS7003;11789;53.482;9.862;2023-05-31T03:57:57;6.00;6.00;5.00
23240;PMS7003;11789;53.482;9.862;2023-05-31T04:00:23;4.75;4.75;3.75
23240;PMS7003;11789;53.482;9.862;2023-05-31T04:02:49;5.25;5.25;3.50
23240;PMS7003;11789;53.482;9.862;2023-05-31T04:05:14;5.00;5.00;4.00
23240;PMS7003;11789;53.482;9.862;2023-05-31T04:07:40;6.75;6.00;4.00
23240;PMS7003;11789;53.482;9.862;2023-05-31T04:10:06;6.00;5.25;4.50
23240;PMS7003;11789;53.482;9.862;2023-05-31T04:12:32;8.00;6.00;5.00
23240;PMS7003;11789;53.482;9.862;2023-05-31T04:14:57;7.00;7.00;5.50
23240;PMS7003;11789;53.482;9.862;2023-05-31T04:17:23;7.00;7.00;5.00
23240;PMS7003;11789;53.482;9.862;2023-05-31T04:19:48;5.75;5.75;4.50
23240;PMS7003;11789;53.482;9.862;2023-05-31T04:22:14;7.75;7.75;5.00
23240;PMS7003;11789;53.482;9.862;2023-05-31T04:24:39;7.00;7.00;5.00
23240;PMS7003;11789;53.482;9.862;2023-05-31T04:27:04;8.50;7.50;6.00
23240;PMS7003;11789;53.482;9.862;2023-05-31T04:29:32;7.25;7.25;6.25
23240;PMS7003;11789;53.482;9.862;2023-05-31T04:31:57;8.75;6.25;5.00
23240;PMS7003;11789;53.482;9.862;2023-05-31T04:34:23;7.25;7.25;5.00
23240;PMS7003;11789;53.482;9.862;2023-05-31T04:36:51;8.00;7.00;5.00
23240;PMS7003;11789;53.482;9.862;2023-05-31T04:39:17;6.00;6.00;5.00
23240;PMS7003;11789;53.482;9.862;2023-05-31T04:41:45;6.00;6.00;5.25
23240;PMS7003;11789;53.482;9.862;2023-05-31T04:44:11;10.00;7.75;5.75
23240;PMS7003;11789;53.482;9.862;2023-05-31T04:46:36;6.75;6.75;5.50
23240;PMS7003;11789;53.482;9.862;2023-05-31T04:49:02;7.00;7.00;6.00
23240;PMS7003;11789;53.482;9.862;2023-05-31T04:51:28;9.50;9.00;7.00
23240;PMS7003;11789;53.482;9.862;2023-05-31T04:53:54;8.50;6.75;5.00
23240;PMS7003;11789;53.482;9.862;2023-05-31T04:56:19;11.00;11.00;7.00
23240;PMS7003;11789;53.482;9.862;2023-05-31T04:58:46;9.25;8.00;6.00
23240;PMS7003;11789;53.482;9.862;2023-05-31T05:01:12;9.00;7.00;6.00
23240;PMS7003;11789;53.482;9.862;2023-05-31T05:03:40;10.00;10.00;8.00
23240;PMS7003;11789;53.482;9.862;2023-05-31T05:06:16;9.00;9.00;7.00
23240;PMS7003;11789;53.482;9.862;2023-05-31T05:08:43;8.75;8.00;6.00
23240;PMS7003;11789;53.482;9.862;2023-05-31T05:11:09;9.50;9.50;7.50
23240;PMS7003;11789;53.482;9.862;2023-05-31T05:13:34;11.25;11.25;8.25
23240;PMS7003;11789;53.482;9.862;2023-05-31T05:16:00;11.25;11.00;8.00
23240;PMS7003;11789;53.482;9.862;2023-05-31T05:18:27;15.25;11.50;8.00
23240;PMS7003;11789;53.482;9.862;2023-05-31T05:20:52;10.00;10.00;7.25
23240;PMS7003;11789;53.482;9.862;2023-05-31T05:23:18;11.25;11.25;8.75
23240;PMS7003;11789;53.482;9.862;2023-05-31T05:25:44;12.25;10.50;8.00
23240;PMS7003;11789;53.482;9.862;2023-05-31T05:28:09;10.25;10.25;8.00
23240;PMS7003;11789;53.482;9.862;2023-05-31T05:30:35;12.75;10.75;8.25
23240;PMS7003;11789;53.482;9.862;2023-05-31T05:33:00;11.50;11.25;9.00
23240;PMS7003;11789;53.482;9.862;2023-05-31T05:35:26;13.00;12.50;9.00
23240;PMS7003;11789;53.482;9.862;2023-05-31T05:37:51;13.25;10.00;8.00
23240;PMS7003;11789;53.482;9.862;2023-05-31T05:40:20;11.50;10.25;7.25
23240;PMS7003;11789;53.482;9.862;2023-05-31T05:42:47;12.00;11.25;8.75
23240;PMS7003;11789;53.482;9.862;2023-05-31T05:45:13;11.75;11.75;9.75
23240;PMS7003;11789;53.482;9.862;2023-05-31T05:47:38;14.75;11.50;8.75
23240;PMS7003;11789;53.482;9.862;2023-05-31T05:50:04;13.75;12.50;9.00
23240;PMS7003;11789;53.482;9.862;2023-05-31T05:52:30;12.00;12.00;9.00
23240;PMS7003;11789;53.482;9.862;2023-05-31T05:54:55;14.25;14.25;9.75
23240;PMS7003;11789;53.482;9.862;2023-05-31T05:57:21;13.00;13.00;8.25
23240;PMS7003;11789;53.482;9.862;2023-05-31T05:59:46;14.25;13.00;8.50
23240;PMS7003;11789;53.482;9.862;2023-05-31T06:02:12;13.25;11.75;8.00
23240;PMS7003;11789;53.482;9.862;2023-05-31T06:04:38;17.25;14.50;8.75
23240;PMS7003;11789;53.482;9.862;2023-05-31T06:07:03;15.75;15.50;10.50
23240;PMS7003;11789;53.482;9.862;2023-05-31T06:09:29;13.50;13.50;10.00
23240;PMS7003;11789;53.482;9.862;2023-05-31T06:11:54;17.00;15.25;10.00
23240;PMS7003;11789;53.482;9.862;2023-05-31T06:14:20;14.25;11.00;8.75
23240;PMS7003;11789;53.482;9.862;2023-05-31T06:16:45;13.25;13.25;9.75
23240;PMS7003;11789;53.482;9.862;2023-05-31T06:19:11;16.75;15.50;10.75
23240;PMS7003;11789;53.482;9.862;2023-05-31T06:21:36;18.25;14.75;9.25
23240;PMS7003;11789;53.482;9.862;2023-05-31T06:24:02;15.75;15.75;10.25
23240;PMS7003;11789;53.482;9.862;2023-05-31T06:26:28;14.75;14.75;9.75
23240;PMS7003;11789;53.482;9.862;2023-05-31T06:28:53;18.50;14.75;10.75
23240;PMS7003;11789;53.482;9.862;2023-05-31T06:31:19;22.25;17.75;9.75
23240;PMS7003;11789;53.482;9.862;2023-05-31T06:33:44;16.00;15.00;10.50
23240;PMS7003;11789;53.482;9.862;2023-05-31T06:36:10;14.75;12.25;7.25
23240;PMS7003;11789;53.482;9.862;2023-05-31T06:38:35;13.00;13.00;10.00
23240;PMS7003;11789;53.482;9.862;2023-05-31T06:41:01;21.00;16.25;10.25
23240;PMS7003;11789;53.482;9.862;2023-05-31T06:43:26;14.00;11.50;9.00
23240;PMS7003;11789;53.482;9.862;2023-05-31T06:45:52;14.25;12.75;9.00
23240;PMS7003;11789;53.482;9.862;2023-05-31T06:48:17;15.00;13.00;9.50
23240;PMS7003;11789;53.482;9.862;2023-05-31T06:50:43;15.50;14.50;9.75
23240;PMS7003;11789;53.482;9.862;2023-05-31T06:53:08;11.25;11.25;9.50
23240;PMS7003;11789;53.482;9.862;2023-05-31T06:55:38;12.25;12.25;9.00
23240;PMS7003;11789;53.482;9.862;2023-05-31T06:58:04;13.00;11.75;8.25
23240;PMS7003;11789;53.482;9.862;2023-05-31T07:00:29;9.50;9.00;6.75
23240;PMS7003;11789;53.482;9.862;2023-05-31T07:02:55;8.00;7.50;5.50
23240;PMS7003;11789;53.482;9.862;2023-05-31T07:05:21;7.50;7.50;5.00
23240;PMS7003;11789;53.482;9.862;2023-05-31T07:07:46;6.25;6.25;4.00
23240;PMS7003;11789;53.482;9.862;2023-05-31T07:10:12;6.00;6.00;4.50
23240;PMS7003;11789;53.482;9.862;2023-05-31T07:12:37;7.25;7.25;5.00
23240;PMS7003;11789;53.482;9.862;2023-05-31T07:15:03;5.50;5.50;4.00
23240;PMS7003;11789;53.482;9.862;2023-05-31T07:17:29;5.00;5.00;4.00
23240;PMS7003;11789;53.482;9.862;2023-05-31T07:19:55;7.50;5.50;4.25
23240;PMS7003;11789;53.482;9.862;2023-05-31T07:22:20;3.75;3.75;3.00
23240;PMS7003;11789;53.482;9.862;2023-05-31T07:24:47;4.50;4.50;3.00
23240;PMS7003;11789;53.482;9.862;2023-05-31T07:27:13;5.50;5.25;4.00
23240;PMS7003;11789;53.482;9.862;2023-05-31T07:29:39;6.50;6.50;5.00
23240;PMS7003;11789;53.482;9.862;2023-05-31T07:32:04;5.00;5.00;5.00
23240;PMS7003;11789;53.482;9.862;2023-05-31T07:34:30;9.00;8.75;5.00
23240;PMS7003;11789;53.482;9.862;2023-05-31T07:36:56;8.25;7.00;5.00
23240;PMS7003;11789;53.482;9.862;2023-05-31T07:39:22;6.50;5.00;4.00
23240;PMS7003;11789;53.482;9.862;2023-05-31T07:41:48;5.00;5.00;4.00
23240;PMS7003;11789;53.482;9.862;2023-05-31T07:44:13;6.25;6.25;4.00
23240;PMS7003;11789;53.482;9.862;2023-05-31T07:46:41;4.75;4.75;3.00
23240;PMS7003;11789;53.482;9.862;2023-05-31T07:49:07;4.75;4.75;3.50
23240;PMS7003;11789;53.482;9.862;2023-05-31T07:51:33;7.25;4.00;3.00
23240;PMS7003;11789;53.482;9.862;2023-05-31T07:53:59;7.75;4.25;3.00
23240;PMS7003;11789;53.482;9.862;2023-05-31T07:56:24;7.50;4.00;3.00
23240;PMS7003;11789;53.482;9.862;2023-05-31T07:58:50;5.00;4.25;4.00
23240;PMS7003;11789;53.482;9.862;2023-05-31T08:01:15;4.00;4.00;3.75
23240;PMS7003;11789;53.482;9.862;2023-05-31T08:03:41;5.00;4.00;3.00
23240;PMS7003;11789;53.482;9.862;2023-05-31T08:06:07;5.25;5.25;3.00
23240;PMS7003;11789;53.482;9.862;2023-05-31T08:08:33;6.75;3.50;2.25
23240;PMS7003;11789;53.482;9.862;2023-05-31T08:10:59;3.50;3.00;2.75
23240;PMS7003;11789;53.482;9.862;2023-05-31T08:13:26;5.00;3.25;3.00
23240;PMS7003;11789;53.482;9.862;2023-05-31T08:15:58;4.00;3.00;2.00
23240;PMS7003;11789;53.482;9.862;2023-05-31T08:18:23;4.00;2.00;1.25
23240;PMS7003;11789;53.482;9.862;2023-05-31T08:20:49;3.00;3.00;2.00
23240;PMS7003;11789;53.482;9.862;2023-05-31T08:23:21;3.25;3.25;2.50
23240;PMS7003;11789;53.482;9.862;2023-05-31T08:25:48;3.75;3.00;2.00
23240;PMS7003;11789;53.482;9.862;2023-05-31T08:28:14;2.00;2.00;2.00
23240;PMS7003;11789;53.482;9.862;2023-05-31T08:30:39;5.50;2.75;2.00
23240;PMS7003;11789;53.482;9.862;2023-05-31T08:33:05;2.00;2.00;2.00
23240;PMS7003;11789;53.482;9.862;2023-05-31T08:35:30;4.00;4.00;3.00
23240;PMS7003;11789;53.482;9.862;2023-05-31T08:37:56;1.25;1.25;1.00
23240;PMS7003;11789;53.482;9.862;2023-05-31T08:40:22;5.00;4.00;3.00
23240;PMS7003;11789;53.482;9.862;2023-05-31T08:45:19;2.00;2.00;2.00
23240;PMS7003;11789;53.482;9.862;2023-05-31T08:47:47;2.25;2.25;2.00
23240;PMS7003;11789;53.482;9.862;2023-05-31T08:50:18;2.50;2.50;1.75
23240;PMS7003;11789;53.482;9.862;2023-05-31T08:52:45;3.00;3.00;2.00
23240;PMS7003;11789;53.482;9.862;2023-05-31T08:55:11;5.00;3.00;2.00
23240;PMS7003;11789;53.482;9.862;2023-05-31T08:57:37;3.75;2.50;2.00
23240;PMS7003;11789;53.482;9.862;2023-05-31T09:00:03;4.25;2.75;2.00
23240;PMS7003;11789;53.482;9.862;2023-05-31T09:02:36;4.50;4.50;3.00
23240;PMS7003;11789;53.482;9.862;2023-05-31T09:05:02;3.00;3.00;2.00
23240;PMS7003;11789;53.482;9.862;2023-05-31T09:07:29;4.00;3.00;3.00
23240;PMS7003;11789;53.482;9.862;2023-05-31T09:09:55;4.50;3.25;2.00
23240;PMS7003;11789;53.482;9.862;2023-05-31T09:12:21;2.50;2.50;2.00
23240;PMS7003;11789;53.482;9.862;2023-05-31T09:14:46;4.25;4.00;2.00
23240;PMS7003;11789;53.482;9.862;2023-05-31T09:17:12;2.75;2.75;2.00
23240;PMS7003;11789;53.482;9.862;2023-05-31T09:19:43;3.00;3.00;2.75
23240;PMS7003;11789;53.482;9.862;2023-05-31T09:22:15;4.50;3.50;3.00
23240;PMS7003;11789;53.482;9.862;2023-05-31T09:24:48;3.50;3.50;3.00
23240;PMS7003;11789;53.482;9.862;2023-05-31T09:27:15;3.50;3.50;3.00
23240;PMS7003;11789;53.482;9.862;2023-05-31T09:29:42;4.75;3.00;2.00
23240;PMS7003;11789;53.482;9.862;2023-05-31T09:32:08;4.00;2.75;1.25
23240;PMS7003;11789;53.482;9.862;2023-05-31T09:34:35;3.00;3.00;3.00
23240;PMS7003;11789;53.482;9.862;2023-05-31T09:37:00;3.00;3.00;2.00
23240;PMS7003;11789;53.482;9.862;2023-05-31T09:39:26;2.25;2.25;2.00
23240;PMS7003;11789;53.482;9.862;2023-05-31T09:41:52;3.75;3.75;3.00
23240;PMS7003;11789;53.482;9.862;2023-05-31T09:44:25;3.25;3.25;3.00
23240;PMS7003;11789;53.482;9.862;2023-05-31T09:46:52;4.75;3.50;3.00
23240;PMS7003;11789;53.482;9.862;2023-05-31T09:49:17;4.00;4.00;3.00
23240;PMS7003;11789;53.482;9.862;2023-05-31T09:51:50;6.00;5.25;3.00
23240;PMS7003;11789;53.482;9.862;2023-05-31T09:54:17;3.25;3.25;2.50
23240;PMS7003;11789;53.482;9.862;2023-05-31T09:56:47;4.75;3.00;2.00
23240;PMS7003;11789;53.482;9.862;2023-05-31T09:59:14;4.25;3.75;3.00
23240;PMS7003;11789;53.482;9.862;2023-05-31T10:01:40;4.00;4.00;3.00
23240;PMS7003;11789;53.482;9.862;2023-05-31T10:04:06;3.75;3.00;2.00
23240;PMS7003;11789;53.482;9.862;2023-05-31T10:06:32;3.00;3.00;3.00
23240;PMS7003;11789;53.482;9.862;2023-05-31T10:09:04;3.75;3.75;3.00
23240;PMS7003;11789;53.482;9.862;2023-05-31T10:11:41;4.00;2.50;1.25
23240;PMS7003;11789;53.482;9.862;2023-05-31T10:14:21;4.25;3.00;2.50
23240;PMS7003;11789;53.482;9.862;2023-05-31T10:16:54;3.75;2.00;2.00
23240;PMS7003;11789;53.482;9.862;2023-05-31T10:19:36;2.00;2.00;2.00
23240;PMS7003;11789;53.482;9.862;2023-05-31T10:22:05;4.75;4.00;2.00
23240;PMS7003;11789;53.482;9.862;2023-05-31T10:24:51;4.50;3.25;2.50
23240;PMS7003;11789;53.482;9.862;2023-05-31T10:27:29;5.25;3.00;2.00
23240;PMS7003;11789;53.482;9.862;2023-05-31T10:30:03;3.00;3.00;2.50
23240;PMS7003;11789;53.482;9.862;2023-05-31T10:32:33;5.00;3.50;3.00
23240;PMS7003;11789;53.482;9.862;2023-05-31T10:35:05;5.00;3.00;2.00
23240;PMS7003;11789;53.482;9.862;2023-05-31T10:37:31;3.00;3.00;2.50
23240;PMS7003;11789;53.482;9.862;2023-05-31T10:40:07;4.25;3.00;2.50
23240;PMS7003;11789;53.482;9.862;2023-05-31T10:42:42;2.00;2.00;2.00
23240;PMS7003;11789;53.482;9.862;2023-05-31T10:48:10;4.25;3.50;2.00
23240;PMS7003;11789;53.482;9.862;2023-05-31T10:50:55;3.25;3.25;3.00
23240;PMS7003;11789;53.482;9.862;2023-05-31T10:53:23;3.00;3.00;2.00
23240;PMS7003;11789;53.482;9.862;2023-05-31T10:56:02;2.75;2.75;2.00
23240;PMS7003;11789;53.482;9.862;2023-05-31T11:01:03;2.00;2.00;1.50
23240;PMS7003;11789;53.482;9.862;2023-05-31T11:03:35;2.00;2.00;1.50
23240;PMS7003;11789;53.482;9.862;2023-05-31T11:06:02;3.00;3.00;2.25
23240;PMS7003;11789;53.482;9.862;2023-05-31T11:08:31;3.00;3.00;2.25
23240;PMS7003;11789;53.482;9.862;2023-05-31T11:14:00;1.00;1.00;1.00
23240;PMS7003;11789;53.482;9.862;2023-05-31T11:16:29;2.75;1.75;1.00
23240;PMS7003;11789;53.482;9.862;2023-05-31T11:19:05;1.75;1.75;1.00
23240;PMS7003;11789;53.482;9.862;2023-05-31T11:21:45;2.00;2.00;1.00
23240;PMS7003;11789;53.482;9.862;2023-05-31T11:24:28;2.75;1.00;1.00
23240;PMS7003;11789;53.482;9.862;2023-05-31T11:26:59;3.00;1.75;1.25
23240;PMS7003;11789;53.482;9.862;2023-05-31T11:29:59;3.00;3.00;2.50
23240;PMS7003;11789;53.482;9.862;2023-05-31T11:32:18;4.25;4.25;3.00
23240;PMS7003;11789;53.482;9.862;2023-05-31T11:34:54;4.75;3.00;2.00
23240;PMS7003;11789;53.482;9.862;2023-05-31T11:37:30;4.25;4.25;3.00
23240;PMS7003;11789;53.482;9.862;2023-05-31T11:39:59;4.00;4.00;3.00
23240;PMS7003;11789;53.482;9.862;2023-05-31T11:42:33;4.00;4.00;3.00
23240;PMS7003;11789;53.482;9.862;2023-05-31T11:45:04;2.33;2.33;2.00
23240;PMS7003;11789;53.482;9.862;2023-05-31T11:47:32;1.00;1.00;1.00
23240;PMS7003;11789;53.482;9.862;2023-05-31T11:50:05;1.00;1.00;1.00
23240;PMS7003;11789;53.482;9.862;2023-05-31T11:52:31;1.00;1.00;0.67
23240;PMS7003;11789;53.482;9.862;2023-05-31T11:55:03;1.00;1.00;1.00
23240;PMS7003;11789;53.482;9.862;2023-05-31T11:57:30;1.00;1.00;1.00
23240;PMS7003;11789;53.482;9.862;2023-05-31T12:00:02;1.00;1.00;1.00
23240;PMS7003;11789;53.482;9.862;2023-05-31T12:02:33;1.33;1.00;1.00
23240;PMS7003;11789;53.482;9.862;2023-05-31T12:04:59;2.33;2.00;1.00
23240;PMS7003;11789;53.482;9.862;2023-05-31T12:07:24;1.33;1.00;0.67
23240;PMS7003;11789;53.482;9.862;2023-05-31T12:09:50;2.00;2.00;1.00
23240;PMS7003;11789;53.482;9.862;2023-05-31T12:12:16;0.67;0.67;0.00
23240;PMS7003;11789;53.482;9.862;2023-05-31T12:14:51;3.33;2.00;1.00
23240;PMS7003;11789;53.482;9.862;2023-05-31T12:17:17;2.67;1.00;1.00
23240;PMS7003;11789;53.482;9.862;2023-05-31T12:19:44;2.00;2.00;1.33
23240;PMS7003;11789;53.482;9.862;2023-05-31T12:22:12;1.00;1.00;1.00
23240;PMS7003;11789;53.482;9.862;2023-05-31T12:24:38;2.67;1.00;0.67
23240;PMS7003;11789;53.482;9.862;2023-05-31T12:27:14;2.00;2.00;1.00
23240;PMS7003;11789;53.482;9.862;2023-05-31T12:29:40;2.00;2.00;1.33
23240;PMS7003;11789;53.482;9.862;2023-05-31T12:32:06;2.00;2.00;2.00
23240;PMS7003;11789;53.482;9.862;2023-05-31T12:34:32;2.00;2.00;2.00
23240;PMS7003;11789;53.482;9.862;2023-05-31T12:37:02;3.00;1.67;1.00
23240;PMS7003;11789;53.482;9.862;2023-05-31T12:39:30;4.00;2.67;2.00
23240;PMS7003;11789;53.482;9.862;2023-05-31T12:41:56;4.00;2.33;2.00
23240;PMS7003;11789;53.482;9.862;2023-05-31T12:44:22;2.00;2.00;1.67
23240;PMS7003;11789;53.482;9.862;2023-05-31T12:46:49;5.00;1.33;1.00
23240;PMS7003;11789;53.482;9.862;2023-05-31T12:49:22;3.00;2.00;2.00
23240;PMS7003;11789;53.482;9.862;2023-05-31T12:54:24;1.00;1.00;1.00
23240;PMS7003;11789;53.482;9.862;2023-05-31T12:56:50;1.67;1.67;1.00
23240;PMS7003;11789;53.482;9.862;2023-05-31T12:59:16;1.00;1.00;1.00
23240;PMS7003;11789;53.482;9.862;2023-05-31T13:01:41;4.00;1.00;0.33
23240;PMS7003;11789;53.482;9.862;2023-05-31T13:04:09;0.00;0.00;0.00
23240;PMS7003;11789;53.482;9.862;2023-05-31T13:06:36;1.00;1.00;1.00
23240;PMS7003;11789;53.482;9.862;2023-05-31T13:09:05;0.00;0.00;0.00
23240;PMS7003;11789;53.482;9.862;2023-05-31T13:11:38;1.00;1.00;0.00
23240;PMS7003;11789;53.482;9.862;2023-05-31T13:14:05;1.00;1.00;1.00
23240;PMS7003;11789;53.482;9.862;2023-05-31T13:16:33;0.00;0.00;0.00
23240;PMS7003;11789;53.482;9.862;2023-05-31T13:19:03;2.33;1.00;1.00
23240;PMS7003;11789;53.482;9.862;2023-05-31T13:21:30;1.00;1.00;1.00
23240;PMS7003;11789;53.482;9.862;2023-05-31T13:23:58;0.00;0.00;0.00
23240;PMS7003;11789;53.482;9.862;2023-05-31T13:26:25;0.67;0.67;0.00
23240;PMS7003;11789;53.482;9.862;2023-05-31T13:28:57;1.00;1.00;1.00
23240;PMS7003;11789;53.482;9.862;2023-05-31T13:31:24;2.00;0.00;0.00
23240;PMS7003;11789;53.482;9.862;2023-05-31T13:33:50;1.00;1.00;0.00
23240;PMS7003;11789;53.482;9.862;2023-05-31T13:36:16;2.00;0.00;0.00
23240;PMS7003;11789;53.482;9.862;2023-05-31T13:38:43;2.00;0.00;0.00
23240;PMS7003;11789;53.482;9.862;2023-05-31T13:41:08;1.00;1.00;1.00
23240;PMS7003;11789;53.482;9.862;2023-05-31T13:43:34;3.00;2.00;1.33
23240;PMS7003;11789;53.482;9.862;2023-05-31T13:45:59;1.00;1.00;0.00
23240;PMS7003;11789;53.482;9.862;2023-05-31T13:48:25;2.67;1.00;1.00
23240;PMS7003;11789;53.482;9.862;2023-05-31T13:50:51;1.00;1.00;1.00
23240;PMS7003;11789;53.482;9.862;2023-05-31T13:53:20;2.00;1.00;1.00
23240;PMS7003;11789;53.482;9.862;2023-05-31T13:55:46;2.00;0.00;0.00
23240;PMS7003;11789;53.482;9.862;2023-05-31T13:58:12;1.00;1.00;1.00
23240;PMS7003;11789;53.482;9.862;2023-05-31T14:00:37;1.00;1.00;1.00
23240;PMS7003;11789;53.482;9.862;2023-05-31T14:03:03;1.00;1.00;0.00
23240;PMS7003;11789;53.482;9.862;2023-05-31T14:05:29;3.00;1.33;1.00
23240;PMS7003;11789;53.482;9.862;2023-05-31T14:07:55;1.67;1.67;1.00
23240;PMS7003;11789;53.482;9.862;2023-05-31T14:10:21;1.00;1.00;1.00
23240;PMS7003;11789;53.482;9.862;2023-05-31T14:12:47;1.00;1.00;1.00
23240;PMS7003;11789;53.482;9.862;2023-05-31T14:15:13;1.00;1.00;1.00
23240;PMS7003;11789;53.482;9.862;2023-05-31T14:17:39;1.00;1.00;0.33
23240;PMS7003;11789;53.482;9.862;2023-05-31T14:20:05;1.67;1.67;1.00
23240;PMS7003;11789;53.482;9.862;2023-05-31T14:22:31;2.67;2.00;1.00
23240;PMS7003;11789;53.482;9.862;2023-05-31T14:24:57;1.33;1.00;1.00
23240;PMS7003;11789;53.482;9.862;2023-05-31T14:27:23;2.33;2.33;1.00
23240;PMS7003;11789;53.482;9.862;2023-05-31T14:29:48;1.00;1.00;1.00
23240;PMS7003;11789;53.482;9.862;2023-05-31T14:32:14;1.00;1.00;1.00
23240;PMS7003;11789;53.482;9.862;2023-05-31T14:34:41;1.00;1.00;1.00
23240;PMS7003;11789;53.482;9.862;2023-05-31T14:37:08;0.67;0.67;0.33
23240;PMS7003;11789;53.482;9.862;2023-05-31T14:39:33;2.00;2.00;1.00